KMWA

Veterans of Southern Illinois Airport

Marion, Illinois, USA
METAR KMWA 150315Z AUTO 19004KT 10SM OVC090 22/19 A2999 RMK AO2 T02150194
Observed Flight Rules
Aug-15 @ 03:15 UTC (21 minutes ago) Visual Flight Rules
Wind Visibility Clouds
190° at 4 knots 10 miles
  • Overcast at 9,000' AGL
Temperatures Readings
Current 22°C / 72°F
Dewpoint 19°C / 66°F
Humidity 83%
Altimeter 29.99" Hg
Pressure 1016 hPa
Elevation 144
METAR KMWA 150315Z AUTO 19004KT 10SM OVC090 22/19 A2999 RMK AO2 T02150194
Observed Flight Rules
Aug-15 @ 03:15 UTC
(21 minutes ago)
VFR
Wind Visibility
190° at 4 knots 10 miles
Clouds
  • Overcast at 9,000' AGL
Temperature Dewpoint
22°C / 72°F 19°C / 66°F
Humidity Altimeter Pressure
83% 29.99" Hg 1016 hPa